createdAt,value
2023-04-05T00:01:12.400Z,0.40
2023-04-05T00:03:40.225Z,0.43
2023-04-05T00:06:07.863Z,0.30
2023-04-05T00:08:34.312Z,0.30
2023-04-05T00:11:00.744Z,0.40
2023-04-05T00:13:27.169Z,0.40
2023-04-05T00:15:53.596Z,0.45
2023-04-05T00:18:23.852Z,0.60
2023-04-05T00:20:53.995Z,0.55
2023-04-05T00:23:23.672Z,0.40
2023-04-05T00:25:50.021Z,0.40
2023-04-05T00:28:16.520Z,0.63
2023-04-05T00:30:42.990Z,0.80
2023-04-05T00:33:09.524Z,0.77
2023-04-05T00:35:36.222Z,0.70
2023-04-05T00:38:02.690Z,1.00
2023-04-05T00:40:29.039Z,1.17
2023-04-05T00:42:55.370Z,1.38
2023-04-05T00:45:21.711Z,1.63
2023-04-05T00:47:48.265Z,1.42
2023-04-05T00:50:16.097Z,1.52
2023-04-05T00:52:43.480Z,1.63
2023-04-05T00:55:10.250Z,1.00
2023-04-05T00:57:39.490Z,1.08
2023-04-05T01:00:11.802Z,1.80
2023-04-05T01:02:45.919Z,1.73
2023-04-05T01:05:19.527Z,2.42
2023-04-05T01:08:00.016Z,2.50
2023-04-05T01:10:31.209Z,1.50
2023-04-05T01:12:57.807Z,3.20
2023-04-05T01:15:24.192Z,2.47
2023-04-05T01:17:50.587Z,2.30
2023-04-05T01:20:16.936Z,1.27
2023-04-05T01:23:01.792Z,1.00
2023-04-05T01:25:34.796Z,1.00
2023-04-05T01:28:13.171Z,1.00
2023-04-05T01:30:42.429Z,0.70
2023-04-05T01:33:21.310Z,0.70
2023-04-05T01:35:53.861Z,0.70
2023-04-05T01:38:22.700Z,0.82
2023-04-05T01:40:49.480Z,0.80
2023-04-05T01:43:16.515Z,0.70
2023-04-05T01:45:43.566Z,0.60
2023-04-05T01:48:10.134Z,0.70
2023-04-05T01:50:36.553Z,0.80
2023-04-05T01:53:03.283Z,0.60
2023-04-05T01:55:29.725Z,0.63
2023-04-05T01:57:56.697Z,0.90
2023-04-05T02:00:23.308Z,0.40
2023-04-05T02:02:49.747Z,0.40
2023-04-05T02:05:16.295Z,0.40
2023-04-05T02:07:42.950Z,0.50
2023-04-05T02:10:09.445Z,0.50
2023-04-05T02:12:35.773Z,0.70
2023-04-05T02:15:02.374Z,0.70
2023-04-05T02:17:39.723Z,0.70
2023-04-05T02:20:12.699Z,0.70
2023-04-05T02:22:40.074Z,1.10
2023-04-05T02:25:09.008Z,0.73
2023-04-05T02:27:35.464Z,0.90
2023-04-05T02:30:01.803Z,0.60
2023-04-05T02:32:28.370Z,0.68
2023-04-05T02:34:54.715Z,0.60
2023-04-05T02:37:21.185Z,0.80
2023-04-05T02:39:47.620Z,0.60
2023-04-05T02:42:13.954Z,0.70
2023-04-05T02:44:40.578Z,0.60
2023-04-05T02:47:06.867Z,0.50
2023-04-05T02:49:33.235Z,0.60
2023-04-05T02:51:59.638Z,0.60
2023-04-05T02:54:26.307Z,0.70
2023-04-05T02:56:54.771Z,1.20
2023-04-05T02:59:21.163Z,0.60
2023-04-05T03:01:47.782Z,0.70
2023-04-05T03:04:14.207Z,0.50
2023-04-05T03:06:44.827Z,0.70
2023-04-05T03:09:11.502Z,0.82
2023-04-05T03:11:37.795Z,0.80
2023-04-05T03:14:04.275Z,0.90
2023-04-05T03:16:30.821Z,0.85
2023-04-05T03:18:57.273Z,0.70
2023-04-05T03:21:23.701Z,0.60
2023-04-05T03:23:50.363Z,0.50
2023-04-05T03:26:16.817Z,0.40
2023-04-05T03:28:46.128Z,0.40
2023-04-05T03:31:12.497Z,0.40
2023-04-05T03:33:39.301Z,0.50
2023-04-05T03:36:06.206Z,0.70
2023-04-05T03:38:32.648Z,0.60
2023-04-05T03:40:58.985Z,0.70
2023-04-05T03:43:25.285Z,1.10
2023-04-05T03:45:51.693Z,1.00
2023-04-05T03:48:20.448Z,1.27
2023-04-05T03:50:47.032Z,1.25
2023-04-05T03:53:13.458Z,1.05
2023-04-05T03:55:50.341Z,1.13
2023-04-05T03:58:17.257Z,0.88
2023-04-05T04:00:43.748Z,0.55
2023-04-05T04:03:10.087Z,0.70
2023-04-05T04:05:39.340Z,0.80
2023-04-05T04:08:06.494Z,0.60
2023-04-05T04:10:34.284Z,0.50
2023-04-05T04:13:00.741Z,0.63
2023-04-05T04:15:27.166Z,0.75
2023-04-05T04:17:53.601Z,1.00
2023-04-05T04:20:20.067Z,0.90
2023-04-05T04:22:48.964Z,0.90
2023-04-05T04:25:18.593Z,0.90
2023-04-05T04:27:46.664Z,1.13
2023-04-05T04:30:14.750Z,1.13
2023-04-05T04:32:51.878Z,1.00
2023-04-05T04:35:24.981Z,0.90
2023-04-05T04:37:58.767Z,0.90
2023-04-05T04:40:29.322Z,1.05
2023-04-05T04:42:58.986Z,1.00
2023-04-05T04:45:26.106Z,1.13
2023-04-05T04:47:53.711Z,1.40
2023-04-05T04:50:20.509Z,1.60
2023-04-05T04:52:47.199Z,1.35
2023-04-05T04:55:13.781Z,1.38
2023-04-05T04:57:40.721Z,0.80
2023-04-05T05:00:13.495Z,0.90
2023-04-05T05:02:40.599Z,0.90
2023-04-05T05:05:07.712Z,0.93
2023-04-05T05:07:34.208Z,0.80
2023-04-05T05:10:00.625Z,0.90
2023-04-05T05:12:26.982Z,0.70
2023-04-05T05:14:53.344Z,0.60
2023-04-05T05:17:19.625Z,0.93
2023-04-05T05:19:45.956Z,0.95
2023-04-05T05:22:12.312Z,1.20
2023-04-05T05:24:38.672Z,1.50
2023-04-05T05:27:05.085Z,1.10
2023-04-05T05:29:31.845Z,1.00
2023-04-05T05:31:58.334Z,0.90
2023-04-05T05:34:24.723Z,0.70
2023-04-05T05:36:52.392Z,0.70
2023-04-05T05:39:19.291Z,0.60
2023-04-05T05:41:45.711Z,0.60
2023-04-05T05:44:11.994Z,0.50
2023-04-05T05:46:38.349Z,0.80
2023-04-05T05:49:04.755Z,0.88
2023-04-05T05:51:32.495Z,0.60
2023-04-05T05:53:59.047Z,0.68
2023-04-05T05:56:25.518Z,0.50
2023-04-05T05:58:51.949Z,0.73
2023-04-05T06:01:18.364Z,0.60
2023-04-05T06:03:44.901Z,0.80
2023-04-05T06:06:11.392Z,0.60
2023-04-05T06:08:38.289Z,0.80
2023-04-05T06:11:04.787Z,0.85
2023-04-05T06:13:31.174Z,0.65
2023-04-05T06:15:57.613Z,0.70
2023-04-05T06:18:23.987Z,0.60
2023-04-05T06:20:50.567Z,0.93
2023-04-05T06:23:17.004Z,0.90
2023-04-05T06:25:43.460Z,0.60
2023-04-05T06:28:09.867Z,0.50
2023-04-05T06:30:36.604Z,0.50
2023-04-05T06:33:03.035Z,0.85
2023-04-05T06:35:29.413Z,0.85
2023-04-05T06:37:58.927Z,0.80
2023-04-05T06:40:25.644Z,1.40
2023-04-05T06:42:51.949Z,1.70
2023-04-05T06:45:19.729Z,2.10
2023-04-05T06:47:46.319Z,1.90
2023-04-05T06:50:12.735Z,1.80
2023-04-05T06:52:39.215Z,1.30
2023-04-05T06:55:06.060Z,1.30
2023-04-05T06:57:32.568Z,1.10
2023-04-05T06:59:58.895Z,0.82
2023-04-05T07:02:25.666Z,1.10
2023-04-05T07:04:52.881Z,0.80
2023-04-05T07:07:19.416Z,0.60
2023-04-05T07:09:45.819Z,0.70
2023-04-05T07:12:12.148Z,0.90
2023-04-05T07:14:38.498Z,0.90
2023-04-05T07:17:06.178Z,1.00
2023-04-05T07:19:32.950Z,1.15
2023-04-05T07:21:59.338Z,1.02
2023-04-05T07:24:26.065Z,0.70
2023-04-05T07:26:52.439Z,3.05
2023-04-05T07:29:18.911Z,2.70
2023-04-05T07:31:45.517Z,2.08
2023-04-05T07:34:12.874Z,2.00
2023-04-05T07:36:39.224Z,1.70
2023-04-05T07:39:05.724Z,1.30
2023-04-05T07:41:32.241Z,1.35
2023-04-05T07:43:58.827Z,1.17
2023-04-05T07:46:25.329Z,0.90
2023-04-05T07:48:51.777Z,4.35
2023-04-05T07:51:18.209Z,2.58
2023-04-05T07:53:44.597Z,3.70
2023-04-05T07:56:12.208Z,2.38
2023-04-05T07:58:41.199Z,2.17
2023-04-05T08:01:08.441Z,1.95
2023-04-05T08:03:35.500Z,2.90
2023-04-05T08:06:15.232Z,2.25
2023-04-05T08:08:41.718Z,2.92
2023-04-05T08:11:08.225Z,4.53
2023-04-05T08:13:34.634Z,5.60
2023-04-05T08:16:02.053Z,5.85
2023-04-05T08:18:28.639Z,5.47
2023-04-05T08:20:55.575Z,3.67
2023-04-05T08:23:22.088Z,3.28
2023-04-05T08:25:48.556Z,3.92
2023-04-05T08:28:15.272Z,3.30
2023-04-05T08:30:42.363Z,2.00
2023-04-05T08:33:08.985Z,2.50
2023-04-05T08:35:39.148Z,4.85
2023-04-05T08:38:06.906Z,4.55
2023-04-05T08:40:43.550Z,3.17
2023-04-05T08:43:14.515Z,3.92
2023-04-05T08:45:44.432Z,2.25
2023-04-05T08:48:10.896Z,2.55
2023-04-05T08:50:37.263Z,2.85
2023-04-05T08:53:03.691Z,3.80
2023-04-05T08:55:30.047Z,2.97
2023-04-05T08:57:59.230Z,3.15
2023-04-05T09:00:27.416Z,3.95
2023-04-05T09:02:55.001Z,3.97
2023-04-05T09:05:23.342Z,5.82
2023-04-05T09:07:50.773Z,5.10
2023-04-05T09:10:19.884Z,3.42
2023-04-05T09:12:46.329Z,2.50
2023-04-05T09:15:14.164Z,4.78
2023-04-05T09:17:41.725Z,3.90
2023-04-05T09:20:08.155Z,5.22
2023-04-05T09:22:47.131Z,5.47
2023-04-05T09:25:31.653Z,4.82
2023-04-05T09:28:02.847Z,4.60
2023-04-05T09:30:29.223Z,4.80
2023-04-05T09:32:56.174Z,3.88
2023-04-05T09:35:24.215Z,4.00
2023-04-05T09:38:00.491Z,4.32
2023-04-05T09:40:45.756Z,3.45
2023-04-05T09:43:13.087Z,2.50
2023-04-05T09:45:41.642Z,2.70
2023-04-05T09:48:08.766Z,2.90
2023-04-05T09:50:35.789Z,2.50
2023-04-05T09:53:09.733Z,2.67
2023-04-05T09:55:36.384Z,3.47
2023-04-05T09:58:03.417Z,4.10
2023-04-05T10:00:31.396Z,3.35
2023-04-05T10:02:58.201Z,3.35
2023-04-05T10:05:26.976Z,2.20
2023-04-05T10:07:54.849Z,1.90
2023-04-05T10:10:22.141Z,4.40
2023-04-05T10:12:49.390Z,3.65
2023-04-05T10:15:16.096Z,3.92
2023-04-05T10:17:44.547Z,3.15
2023-04-05T10:20:14.752Z,1.80
2023-04-05T10:22:59.897Z,4.03
2023-04-05T10:25:31.534Z,2.72
2023-04-05T10:28:04.382Z,2.42
2023-04-05T10:30:34.947Z,3.35
2023-04-05T10:33:01.735Z,3.15
2023-04-05T10:35:34.029Z,2.40
2023-04-05T10:38:17.394Z,1.67
2023-04-05T10:40:46.437Z,1.27
2023-04-05T10:43:16.670Z,3.00
2023-04-05T10:45:44.240Z,3.78
2023-04-05T10:48:21.388Z,3.90
2023-04-05T10:50:48.421Z,3.38
2023-04-05T10:53:15.870Z,2.97
2023-04-05T10:55:43.999Z,4.15
2023-04-05T10:58:10.426Z,2.50
2023-04-05T11:00:36.817Z,2.80
2023-04-05T11:03:03.294Z,2.25
2023-04-05T11:05:33.972Z,1.30
2023-04-05T11:08:03.089Z,1.38
2023-04-05T11:10:30.010Z,3.40
2023-04-05T11:12:56.340Z,2.83
2023-04-05T11:15:25.656Z,3.55
2023-04-05T11:18:09.059Z,2.30
2023-04-05T11:20:46.436Z,2.72
2023-04-05T11:23:21.172Z,2.63
2023-04-05T11:25:49.906Z,3.13
2023-04-05T11:28:29.910Z,3.60
2023-04-05T11:30:59.419Z,3.55
2023-04-05T11:33:55.403Z,2.88
2023-04-05T11:36:32.198Z,3.17
2023-04-05T11:39:17.126Z,1.63
2023-04-05T11:41:44.131Z,1.70
2023-04-05T11:44:14.264Z,1.90
2023-04-05T11:46:41.624Z,3.47
2023-04-05T11:49:08.138Z,4.03
2023-04-05T11:51:34.701Z,2.90
2023-04-05T11:54:01.096Z,1.95
2023-04-05T11:56:27.390Z,1.50
2023-04-05T11:58:58.002Z,1.65
2023-04-05T12:01:24.364Z,2.63
2023-04-05T12:03:55.058Z,1.90
2023-04-05T12:06:22.270Z,1.30
2023-04-05T12:08:51.416Z,2.10
2023-04-05T12:11:23.768Z,2.92
2023-04-05T12:13:53.573Z,3.17
2023-04-05T12:16:20.030Z,3.45
2023-04-05T12:18:52.864Z,3.08
2023-04-05T12:21:19.252Z,3.28
2023-04-05T12:23:45.701Z,2.70
2023-04-05T12:26:12.215Z,2.00
2023-04-05T12:28:57.914Z,2.72
2023-04-05T12:31:39.880Z,2.65
2023-04-05T12:36:32.937Z,2.28
2023-04-05T12:38:59.458Z,3.40
2023-04-05T12:41:29.963Z,3.97
2023-04-05T12:44:04.364Z,3.60
2023-04-05T12:46:44.184Z,4.10
2023-04-05T12:49:14.803Z,3.35
2023-04-05T12:51:43.003Z,4.78
2023-04-05T12:54:11.973Z,3.75
2023-04-05T12:56:38.910Z,3.20
2023-04-05T12:59:05.946Z,1.95
2023-04-05T13:01:32.431Z,2.03
2023-04-05T13:04:14.831Z,2.10
2023-04-05T13:06:43.013Z,3.65
2023-04-05T13:09:09.381Z,2.80
2023-04-05T13:11:35.778Z,2.13
2023-04-05T13:14:02.185Z,1.85
2023-04-05T13:16:28.536Z,2.22
2023-04-05T13:18:54.896Z,2.15
2023-04-05T13:21:21.245Z,1.73
2023-04-05T13:23:47.577Z,1.33
2023-04-05T13:26:13.890Z,1.23
2023-04-05T13:28:40.347Z,1.15
2023-04-05T13:31:08.350Z,1.60
2023-04-05T13:33:34.900Z,1.70
2023-04-05T13:36:01.483Z,1.30
2023-04-05T13:38:27.931Z,1.30
2023-04-05T13:40:54.367Z,1.20
2023-04-05T13:43:20.711Z,0.88
2023-04-05T13:45:47.073Z,1.20
2023-04-05T13:48:13.449Z,1.60
2023-04-05T13:50:40.066Z,1.10
2023-04-05T13:53:06.605Z,1.83
2023-04-05T13:55:32.937Z,1.05
2023-04-05T13:57:59.349Z,0.65
2023-04-05T14:00:25.650Z,0.98
2023-04-05T14:02:52.094Z,0.70
2023-04-05T14:05:18.588Z,0.70
2023-04-05T14:07:44.985Z,0.93
2023-04-05T14:10:11.689Z,2.55
2023-04-05T14:12:38.840Z,1.60
2023-04-05T14:15:05.488Z,2.15
2023-04-05T14:17:31.945Z,1.40
2023-04-05T14:19:58.456Z,1.52
2023-04-05T14:22:25.008Z,1.00
2023-04-05T14:24:51.434Z,4.07
2023-04-05T14:27:17.844Z,2.80
2023-04-05T14:29:45.841Z,2.47
2023-04-05T14:32:12.396Z,3.08
2023-04-05T14:34:38.745Z,3.28
2023-04-05T14:37:06.618Z,2.50
2023-04-05T14:39:33.224Z,1.67
2023-04-05T14:41:59.852Z,2.15
2023-04-05T14:44:27.889Z,2.90
2023-04-05T14:46:54.272Z,3.90
2023-04-05T14:49:21.546Z,2.63
2023-04-05T14:51:47.953Z,3.00
2023-04-05T14:54:14.322Z,3.38
2023-04-05T14:56:40.771Z,2.33
2023-04-05T14:59:07.143Z,3.05
2023-04-05T15:01:33.710Z,2.33
2023-04-05T15:04:00.234Z,2.10
2023-04-05T15:06:27.093Z,3.65
2023-04-05T15:08:53.513Z,2.25
2023-04-05T15:11:21.658Z,1.75
2023-04-05T15:13:48.001Z,1.30
2023-04-05T15:16:14.477Z,0.80
2023-04-05T15:18:40.919Z,0.90
2023-04-05T15:21:07.484Z,0.82
2023-04-05T15:23:33.932Z,1.00
2023-04-05T15:26:00.270Z,2.40
2023-04-05T15:28:26.688Z,1.00
2023-04-05T15:30:53.082Z,1.40
2023-04-05T15:33:19.423Z,2.65
2023-04-05T15:35:46.152Z,3.88
2023-04-05T15:38:12.500Z,3.13
2023-04-05T15:40:39.779Z,1.95
2023-04-05T15:43:06.154Z,2.13
2023-04-05T15:45:32.477Z,1.40
2023-04-05T15:47:58.837Z,0.88
2023-04-05T15:50:25.634Z,0.98
2023-04-05T15:52:52.018Z,1.40
2023-04-05T15:55:18.434Z,2.60
2023-04-05T15:57:44.854Z,1.90
2023-04-05T16:00:11.764Z,2.00
2023-04-05T16:02:38.415Z,1.45
2023-04-05T16:05:05.052Z,1.25
2023-04-05T16:07:31.900Z,2.53
2023-04-05T16:09:58.345Z,2.50
2023-04-05T16:12:24.710Z,3.30
2023-04-05T16:14:51.131Z,3.47
2023-04-05T16:17:17.591Z,2.10
2023-04-05T16:19:44.407Z,1.40
2023-04-05T16:22:10.740Z,2.40
2023-04-05T16:24:38.307Z,2.13
2023-04-05T16:27:05.050Z,1.90
2023-04-05T16:29:31.663Z,1.90
2023-04-05T16:31:58.217Z,2.55
2023-04-05T16:34:24.581Z,3.35
2023-04-05T16:36:51.391Z,2.25
2023-04-05T16:39:17.679Z,2.13
2023-04-05T16:41:44.219Z,3.10
2023-04-05T16:44:10.800Z,2.80
2023-04-05T16:46:37.286Z,2.88
2023-04-05T16:49:04.169Z,2.75
2023-04-05T16:51:31.648Z,2.20
2023-04-05T16:53:58.359Z,3.10
2023-04-05T16:56:25.047Z,1.90
2023-04-05T16:58:52.007Z,2.70
2023-04-05T17:01:18.613Z,2.63
2023-04-05T17:03:48.169Z,2.30
2023-04-05T17:06:14.858Z,2.13
2023-04-05T17:08:41.474Z,2.75
2023-04-05T17:11:07.929Z,2.53
2023-04-05T17:13:34.281Z,2.13
2023-04-05T17:16:00.950Z,1.67
2023-04-05T17:18:27.269Z,1.80
2023-04-05T17:20:53.605Z,1.70
2023-04-05T17:23:19.996Z,1.25
2023-04-05T17:25:46.362Z,1.70
2023-04-05T17:28:13.154Z,0.93
2023-04-05T17:30:39.593Z,1.73
2023-04-05T17:33:06.359Z,2.38
2023-04-05T17:35:32.821Z,2.00
2023-04-05T17:37:59.522Z,1.23
2023-04-05T17:40:25.874Z,0.90
2023-04-05T17:42:52.230Z,0.77
2023-04-05T17:45:18.676Z,1.10
2023-04-05T17:47:45.503Z,1.45
2023-04-05T17:50:12.183Z,1.10
2023-04-05T17:52:38.579Z,0.90
2023-04-05T17:55:05.300Z,0.70
2023-04-05T17:57:31.811Z,0.75
2023-04-05T17:59:59.185Z,2.00
2023-04-05T18:02:25.703Z,1.60
2023-04-05T18:04:52.066Z,2.33
2023-04-05T18:07:18.420Z,1.65
2023-04-05T18:09:44.782Z,1.33
2023-04-05T18:12:11.195Z,1.95
2023-04-05T18:14:37.641Z,1.98
2023-04-05T18:17:07.415Z,1.70
2023-04-05T18:19:33.826Z,1.55
2023-04-05T18:22:00.262Z,2.33
2023-04-05T18:24:26.602Z,1.98
2023-04-05T18:26:53.022Z,2.00
2023-04-05T18:29:19.413Z,1.48
2023-04-05T18:31:45.779Z,1.77
2023-04-05T18:34:12.189Z,2.33
2023-04-05T18:36:39.776Z,1.58
2023-04-05T18:39:06.468Z,1.50
2023-04-05T18:41:33.057Z,1.60
2023-04-05T18:43:59.569Z,1.10
2023-04-05T18:46:26.172Z,0.80
2023-04-05T18:48:54.709Z,0.70
2023-04-05T18:51:22.107Z,0.80
2023-04-05T18:53:48.736Z,0.68
2023-04-05T18:56:15.306Z,0.50
2023-04-05T18:58:41.688Z,1.10
2023-04-05T19:01:14.370Z,0.55
2023-04-05T19:03:40.920Z,0.60
2023-04-05T19:06:07.492Z,0.60
2023-04-05T19:08:33.803Z,0.68
2023-04-05T19:11:00.253Z,0.70
2023-04-05T19:13:26.629Z,0.70
2023-04-05T19:15:53.304Z,0.70
2023-04-05T19:18:21.142Z,0.80
2023-04-05T19:20:47.617Z,0.70
2023-04-05T19:23:13.911Z,0.50
2023-04-05T19:25:40.624Z,0.80
2023-04-05T19:28:07.569Z,0.90
2023-04-05T19:30:34.025Z,0.80
2023-04-05T19:33:00.654Z,0.80
2023-04-05T19:35:27.182Z,0.90
2023-04-05T19:37:53.530Z,1.80
2023-04-05T19:40:20.813Z,2.20
2023-04-05T19:42:47.612Z,1.70
2023-04-05T19:45:15.561Z,2.95
2023-04-05T19:47:45.251Z,4.93
2023-04-05T19:50:37.256Z,3.00
2023-04-05T19:53:06.982Z,2.60
2023-04-05T19:55:34.141Z,2.40
2023-04-05T19:58:01.595Z,2.72
2023-04-05T20:00:40.318Z,2.50
2023-04-05T20:03:27.602Z,2.80
2023-04-05T20:06:03.294Z,2.22
2023-04-05T20:08:30.469Z,2.17
2023-04-05T20:10:57.015Z,1.25
2023-04-05T20:13:23.426Z,1.60
2023-04-05T20:15:49.823Z,1.60
2023-04-05T20:18:23.601Z,2.20
2023-04-05T20:20:51.516Z,2.15
2023-04-05T20:23:19.590Z,2.30
2023-04-05T20:25:48.898Z,2.00
2023-04-05T20:28:27.449Z,2.42
2023-04-05T20:30:53.896Z,1.67
2023-04-05T20:33:41.338Z,2.10
2023-04-05T20:36:11.295Z,1.55
2023-04-05T20:38:41.294Z,1.98
2023-04-05T20:41:08.301Z,1.95
2023-04-05T20:43:35.502Z,2.35
2023-04-05T20:46:03.117Z,2.10
2023-04-05T20:48:33.446Z,2.00
2023-04-05T20:51:00.571Z,1.90
2023-04-05T20:53:27.866Z,1.55
2023-04-05T20:55:54.374Z,1.55
2023-04-05T20:58:20.898Z,1.50
2023-04-05T21:00:47.644Z,1.73
2023-04-05T21:03:14.236Z,1.58
2023-04-05T21:05:40.771Z,1.73
2023-04-05T21:08:07.157Z,2.28
2023-04-05T21:10:33.858Z,1.52
2023-04-05T21:13:00.864Z,1.35
2023-04-05T21:15:31.159Z,1.05
2023-04-05T21:18:00.607Z,1.20
2023-04-05T21:20:27.800Z,0.95
2023-04-05T21:22:55.041Z,1.08
2023-04-05T21:25:21.901Z,0.77
2023-04-05T21:27:48.307Z,0.90
2023-04-05T21:30:14.744Z,1.15
2023-04-05T21:32:41.161Z,1.05
2023-04-05T21:35:08.778Z,0.88
2023-04-05T21:37:35.246Z,0.80
2023-04-05T21:40:03.862Z,1.00
2023-04-05T21:42:30.930Z,0.70
2023-04-05T21:44:57.396Z,0.90
2023-04-05T21:47:23.827Z,0.70
2023-04-05T21:49:50.678Z,0.77
2023-04-05T21:52:16.975Z,1.02
2023-04-05T21:54:43.262Z,1.17
2023-04-05T21:57:09.601Z,1.90
2023-04-05T21:59:36.152Z,2.35
2023-04-05T22:02:03.307Z,1.70
2023-04-05T22:04:29.980Z,1.77
2023-04-05T22:06:56.285Z,1.45
2023-04-05T22:09:22.782Z,0.80
2023-04-05T22:11:49.681Z,0.95
2023-04-05T22:14:16.114Z,0.80
2023-04-05T22:16:42.737Z,0.60
2023-04-05T22:19:11.774Z,0.70
2023-04-05T22:21:38.991Z,0.93
2023-04-05T22:24:05.494Z,0.80
2023-04-05T22:26:32.619Z,0.68
2023-04-05T22:28:59.040Z,0.80
2023-04-05T22:31:25.378Z,0.80
2023-04-05T22:33:52.086Z,0.75
2023-04-05T22:36:18.753Z,0.60
2023-04-05T22:38:45.324Z,0.65
2023-04-05T22:41:11.726Z,0.50
2023-04-05T22:43:38.249Z,0.70
2023-04-05T22:46:04.800Z,0.90
2023-04-05T22:48:31.201Z,1.00
2023-04-05T22:50:57.679Z,0.90
2023-04-05T22:53:24.502Z,1.55
2023-04-05T22:55:51.014Z,1.00
2023-04-05T22:58:17.440Z,1.13
2023-04-05T23:00:43.990Z,1.65
2023-04-05T23:03:10.874Z,1.40
2023-04-05T23:05:38.367Z,1.70
2023-04-05T23:08:04.767Z,1.80
2023-04-05T23:10:31.165Z,1.42
2023-04-05T23:12:57.503Z,1.60
2023-04-05T23:15:23.897Z,0.98
2023-04-05T23:17:50.708Z,0.80
2023-04-05T23:20:17.017Z,0.75
2023-04-05T23:22:43.354Z,0.88
2023-04-05T23:25:09.823Z,0.98
2023-04-05T23:27:36.176Z,1.27
2023-04-05T23:30:02.688Z,1.45
2023-04-05T23:32:29.081Z,1.60
2023-04-05T23:34:55.418Z,1.60
2023-04-05T23:37:21.967Z,1.00
2023-04-05T23:39:48.328Z,1.65
2023-04-05T23:42:16.132Z,1.40
2023-04-05T23:44:42.414Z,1.10
2023-04-05T23:47:08.760Z,1.70
2023-04-05T23:49:35.093Z,1.55
2023-04-05T23:52:01.391Z,1.35
2023-04-05T23:54:27.728Z,1.25
2023-04-05T23:56:54.945Z,1.60
2023-04-05T23:59:21.292Z,1.30
